sensor_id;sensor_type;location;lat;lon;timestamp;P1;durP1;ratioP1;P2;durP2;ratioP2
22646;SDS011;11490;42.726;23.268;2022-08-19T00:00:11;6.68;;;3.60;;
22646;SDS011;11490;42.726;23.268;2022-08-19T00:02:39;5.53;;;3.97;;
22646;SDS011;11490;42.726;23.268;2022-08-19T00:05:06;5.50;;;3.78;;
22646;SDS011;11490;42.726;23.268;2022-08-19T00:07:33;8.57;;;4.38;;
22646;SDS011;11490;42.726;23.268;2022-08-19T00:09:58;8.35;;;4.22;;
22646;SDS011;11490;42.726;23.268;2022-08-19T00:12:24;9.05;;;3.38;;
22646;SDS011;11490;42.726;23.268;2022-08-19T00:14:49;7.60;;;4.32;;
22646;SDS011;11490;42.726;23.268;2022-08-19T00:17:15;7.63;;;4.10;;
22646;SDS011;11490;42.726;23.268;2022-08-19T00:19:40;7.70;;;4.07;;
22646;SDS011;11490;42.726;23.268;2022-08-19T00:22:05;6.10;;;4.10;;
22646;SDS011;11490;42.726;23.268;2022-08-19T00:24:33;6.68;;;4.00;;
22646;SDS011;11490;42.726;23.268;2022-08-19T00:26:59;5.45;;;3.60;;
22646;SDS011;11490;42.726;23.268;2022-08-19T00:29:26;7.72;;;4.50;;
22646;SDS011;11490;42.726;23.268;2022-08-19T00:31:53;5.53;;;3.75;;
22646;SDS011;11490;42.726;23.268;2022-08-19T00:34:19;5.50;;;3.75;;
22646;SDS011;11490;42.726;23.268;2022-08-19T00:36:46;7.20;;;4.55;;
22646;SDS011;11490;42.726;23.268;2022-08-19T00:39:14;7.45;;;4.88;;
22646;SDS011;11490;42.726;23.268;2022-08-19T00:41:41;6.63;;;5.43;;
22646;SDS011;11490;42.726;23.268;2022-08-19T00:44:10;9.98;;;4.30;;
22646;SDS011;11490;42.726;23.268;2022-08-19T00:46:53;6.22;;;4.05;;
22646;SDS011;11490;42.726;23.268;2022-08-19T00:49:34;6.38;;;3.60;;
22646;SDS011;11490;42.726;23.268;2022-08-19T00:52:04;5.15;;;3.78;;
22646;SDS011;11490;42.726;23.268;2022-08-19T00:54:33;5.88;;;3.47;;
22646;SDS011;11490;42.726;23.268;2022-08-19T00:57:02;6.20;;;3.88;;
22646;SDS011;11490;42.726;23.268;2022-08-19T00:59:32;5.18;;;3.47;;
22646;SDS011;11490;42.726;23.268;2022-08-19T01:02:01;5.97;;;4.20;;
22646;SDS011;11490;42.726;23.268;2022-08-19T01:04:27;5.55;;;3.47;;
22646;SDS011;11490;42.726;23.268;2022-08-19T01:06:53;6.13;;;4.28;;
22646;SDS011;11490;42.726;23.268;2022-08-19T01:09:18;6.93;;;4.15;;
22646;SDS011;11490;42.726;23.268;2022-08-19T01:11:44;5.97;;;3.95;;
22646;SDS011;11490;42.726;23.268;2022-08-19T01:14:10;7.55;;;4.60;;
22646;SDS011;11490;42.726;23.268;2022-08-19T01:16:35;5.55;;;3.80;;
22646;SDS011;11490;42.726;23.268;2022-08-19T01:19:06;5.85;;;3.97;;
22646;SDS011;11490;42.726;23.268;2022-08-19T01:21:48;6.22;;;3.80;;
22646;SDS011;11490;42.726;23.268;2022-08-19T01:24:20;6.22;;;3.75;;
22646;SDS011;11490;42.726;23.268;2022-08-19T01:26:46;7.25;;;4.60;;
22646;SDS011;11490;42.726;23.268;2022-08-19T01:29:12;6.63;;;4.07;;
22646;SDS011;11490;42.726;23.268;2022-08-19T01:31:39;6.18;;;4.00;;
22646;SDS011;11490;42.726;23.268;2022-08-19T01:34:05;5.63;;;4.05;;
22646;SDS011;11490;42.726;23.268;2022-08-19T01:36:39;6.38;;;4.47;;
22646;SDS011;11490;42.726;23.268;2022-08-19T01:39:15;6.80;;;3.75;;
22646;SDS011;11490;42.726;23.268;2022-08-19T01:41:44;5.72;;;4.03;;
22646;SDS011;11490;42.726;23.268;2022-08-19T01:44:10;6.75;;;4.40;;
22646;SDS011;11490;42.726;23.268;2022-08-19T01:46:35;6.85;;;4.43;;
22646;SDS011;11490;42.726;23.268;2022-08-19T01:49:02;5.03;;;4.10;;
22646;SDS011;11490;42.726;23.268;2022-08-19T01:51:29;5.47;;;4.10;;
22646;SDS011;11490;42.726;23.268;2022-08-19T01:53:55;8.40;;;4.40;;
22646;SDS011;11490;42.726;23.268;2022-08-19T01:56:21;6.03;;;4.43;;
22646;SDS011;11490;42.726;23.268;2022-08-19T01:58:51;5.45;;;3.72;;
22646;SDS011;11490;42.726;23.268;2022-08-19T02:01:20;10.15;;;4.40;;
22646;SDS011;11490;42.726;23.268;2022-08-19T02:03:46;5.35;;;4.25;;
22646;SDS011;11490;42.726;23.268;2022-08-19T02:06:11;5.70;;;3.97;;
22646;SDS011;11490;42.726;23.268;2022-08-19T02:08:37;6.75;;;4.70;;
22646;SDS011;11490;42.726;23.268;2022-08-19T02:11:04;7.25;;;4.68;;
22646;SDS011;11490;42.726;23.268;2022-08-19T02:13:30;6.55;;;4.38;;
22646;SDS011;11490;42.726;23.268;2022-08-19T02:15:56;5.93;;;4.25;;
22646;SDS011;11490;42.726;23.268;2022-08-19T02:18:22;6.53;;;4.43;;
22646;SDS011;11490;42.726;23.268;2022-08-19T02:20:48;8.45;;;4.80;;
22646;SDS011;11490;42.726;23.268;2022-08-19T02:23:14;6.72;;;5.05;;
22646;SDS011;11490;42.726;23.268;2022-08-19T02:25:41;5.20;;;3.92;;
22646;SDS011;11490;42.726;23.268;2022-08-19T02:28:11;9.50;;;5.20;;
22646;SDS011;11490;42.726;23.268;2022-08-19T02:30:37;12.57;;;4.68;;
22646;SDS011;11490;42.726;23.268;2022-08-19T02:33:05;6.53;;;4.03;;
22646;SDS011;11490;42.726;23.268;2022-08-19T02:35:30;5.50;;;4.47;;
22646;SDS011;11490;42.726;23.268;2022-08-19T02:37:56;6.90;;;4.72;;
22646;SDS011;11490;42.726;23.268;2022-08-19T02:40:40;5.63;;;4.25;;
22646;SDS011;11490;42.726;23.268;2022-08-19T02:43:14;10.07;;;4.72;;
22646;SDS011;11490;42.726;23.268;2022-08-19T02:45:40;7.63;;;4.55;;
22646;SDS011;11490;42.726;23.268;2022-08-19T02:48:06;6.80;;;4.60;;
22646;SDS011;11490;42.726;23.268;2022-08-19T02:50:32;7.65;;;4.95;;
22646;SDS011;11490;42.726;23.268;2022-08-19T02:52:58;7.78;;;4.78;;
22646;SDS011;11490;42.726;23.268;2022-08-19T02:55:23;6.07;;;4.40;;
22646;SDS011;11490;42.726;23.268;2022-08-19T02:57:49;6.70;;;4.63;;
22646;SDS011;11490;42.726;23.268;2022-08-19T03:00:14;8.23;;;5.55;;
22646;SDS011;11490;42.726;23.268;2022-08-19T03:02:40;8.65;;;5.32;;
22646;SDS011;11490;42.726;23.268;2022-08-19T03:05:06;10.85;;;4.78;;
22646;SDS011;11490;42.726;23.268;2022-08-19T03:07:34;7.88;;;5.00;;
22646;SDS011;11490;42.726;23.268;2022-08-19T03:10:00;7.15;;;4.82;;
22646;SDS011;11490;42.726;23.268;2022-08-19T03:12:26;6.97;;;5.18;;
22646;SDS011;11490;42.726;23.268;2022-08-19T03:14:51;9.95;;;6.03;;
22646;SDS011;11490;42.726;23.268;2022-08-19T03:17:17;7.90;;;5.15;;
22646;SDS011;11490;42.726;23.268;2022-08-19T03:19:43;6.07;;;4.93;;
22646;SDS011;11490;42.726;23.268;2022-08-19T03:22:08;11.93;;;5.90;;
22646;SDS011;11490;42.726;23.268;2022-08-19T03:24:34;7.95;;;4.68;;
22646;SDS011;11490;42.726;23.268;2022-08-19T03:27:00;14.80;;;5.85;;
22646;SDS011;11490;42.726;23.268;2022-08-19T03:29:26;13.18;;;5.65;;
22646;SDS011;11490;42.726;23.268;2022-08-19T03:31:54;7.53;;;5.03;;
22646;SDS011;11490;42.726;23.268;2022-08-19T03:34:26;9.32;;;5.50;;
22646;SDS011;11490;42.726;23.268;2022-08-19T03:36:54;7.95;;;5.65;;
22646;SDS011;11490;42.726;23.268;2022-08-19T03:39:22;8.68;;;5.45;;
22646;SDS011;11490;42.726;23.268;2022-08-19T03:41:49;8.68;;;5.45;;
22646;SDS011;11490;42.726;23.268;2022-08-19T03:44:18;7.95;;;5.30;;
22646;SDS011;11490;42.726;23.268;2022-08-19T03:46:48;8.55;;;5.53;;
22646;SDS011;11490;42.726;23.268;2022-08-19T03:49:15;10.43;;;7.70;;
22646;SDS011;11490;42.726;23.268;2022-08-19T03:51:42;13.70;;;7.75;;
22646;SDS011;11490;42.726;23.268;2022-08-19T03:54:09;9.02;;;6.50;;
22646;SDS011;11490;42.726;23.268;2022-08-19T03:56:37;9.68;;;6.95;;
22646;SDS011;11490;42.726;23.268;2022-08-19T03:59:04;11.50;;;7.35;;
22646;SDS011;11490;42.726;23.268;2022-08-19T04:01:31;10.23;;;7.00;;
22646;SDS011;11490;42.726;23.268;2022-08-19T04:03:56;14.63;;;8.43;;
22646;SDS011;11490;42.726;23.268;2022-08-19T04:06:26;12.50;;;7.80;;
22646;SDS011;11490;42.726;23.268;2022-08-19T04:08:55;10.00;;;7.03;;
22646;SDS011;11490;42.726;23.268;2022-08-19T04:11:23;10.23;;;5.97;;
22646;SDS011;11490;42.726;23.268;2022-08-19T04:13:52;9.13;;;6.05;;
22646;SDS011;11490;42.726;23.268;2022-08-19T04:16:19;9.20;;;5.85;;
22646;SDS011;11490;42.726;23.268;2022-08-19T04:18:46;10.75;;;5.70;;
22646;SDS011;11490;42.726;23.268;2022-08-19T04:21:17;12.38;;;7.78;;
22646;SDS011;11490;42.726;23.268;2022-08-19T04:23:44;13.70;;;8.65;;
22646;SDS011;11490;42.726;23.268;2022-08-19T04:26:14;8.95;;;7.15;;
22646;SDS011;11490;42.726;23.268;2022-08-19T04:28:42;23.10;;;13.63;;
22646;SDS011;11490;42.726;23.268;2022-08-19T04:31:13;10.98;;;7.00;;
22646;SDS011;11490;42.726;23.268;2022-08-19T04:33:40;9.10;;;5.13;;
22646;SDS011;11490;42.726;23.268;2022-08-19T04:36:08;12.50;;;5.78;;
22646;SDS011;11490;42.726;23.268;2022-08-19T04:38:42;7.47;;;4.95;;
22646;SDS011;11490;42.726;23.268;2022-08-19T04:41:08;14.07;;;6.35;;
22646;SDS011;11490;42.726;23.268;2022-08-19T04:43:52;7.32;;;4.90;;
22646;SDS011;11490;42.726;23.268;2022-08-19T04:46:17;7.97;;;5.05;;
22646;SDS011;11490;42.726;23.268;2022-08-19T04:48:44;6.63;;;5.20;;
22646;SDS011;11490;42.726;23.268;2022-08-19T04:51:13;9.27;;;6.45;;
22646;SDS011;11490;42.726;23.268;2022-08-19T04:53:41;7.82;;;5.72;;
22646;SDS011;11490;42.726;23.268;2022-08-19T04:56:07;6.68;;;5.35;;
22646;SDS011;11490;42.726;23.268;2022-08-19T04:58:37;10.27;;;6.68;;
22646;SDS011;11490;42.726;23.268;2022-08-19T05:01:03;7.47;;;5.35;;
22646;SDS011;11490;42.726;23.268;2022-08-19T05:03:29;11.27;;;6.95;;
22646;SDS011;11490;42.726;23.268;2022-08-19T05:06:03;11.65;;;7.60;;
22646;SDS011;11490;42.726;23.268;2022-08-19T05:08:32;12.25;;;7.28;;
22646;SDS011;11490;42.726;23.268;2022-08-19T05:10:58;9.32;;;6.85;;
22646;SDS011;11490;42.726;23.268;2022-08-19T05:13:25;9.88;;;5.68;;
22646;SDS011;11490;42.726;23.268;2022-08-19T05:15:58;9.63;;;6.10;;
22646;SDS011;11490;42.726;23.268;2022-08-19T05:18:24;7.72;;;6.30;;
22646;SDS011;11490;42.726;23.268;2022-08-19T05:21:12;8.43;;;6.50;;
22646;SDS011;11490;42.726;23.268;2022-08-19T05:23:59;10.15;;;6.65;;
22646;SDS011;11490;42.726;23.268;2022-08-19T05:26:25;17.73;;;6.53;;
22646;SDS011;11490;42.726;23.268;2022-08-19T05:28:51;10.73;;;6.93;;
22646;SDS011;11490;42.726;23.268;2022-08-19T05:31:18;9.25;;;6.90;;
22646;SDS011;11490;42.726;23.268;2022-08-19T05:33:44;12.20;;;7.00;;
22646;SDS011;11490;42.726;23.268;2022-08-19T05:36:10;11.38;;;7.80;;
22646;SDS011;11490;42.726;23.268;2022-08-19T05:38:36;11.02;;;6.50;;
22646;SDS011;11490;42.726;23.268;2022-08-19T05:41:11;11.38;;;8.43;;
22646;SDS011;11490;42.726;23.268;2022-08-19T05:43:38;9.23;;;6.32;;
22646;SDS011;11490;42.726;23.268;2022-08-19T05:46:04;8.88;;;5.90;;
22646;SDS011;11490;42.726;23.268;2022-08-19T05:48:32;8.57;;;6.22;;
22646;SDS011;11490;42.726;23.268;2022-08-19T05:51:02;9.23;;;6.72;;
22646;SDS011;11490;42.726;23.268;2022-08-19T05:53:31;10.88;;;6.40;;
22646;SDS011;11490;42.726;23.268;2022-08-19T05:56:03;7.97;;;6.03;;
22646;SDS011;11490;42.726;23.268;2022-08-19T05:58:33;8.75;;;6.18;;
22646;SDS011;11490;42.726;23.268;2022-08-19T06:00:59;11.90;;;5.82;;
22646;SDS011;11490;42.726;23.268;2022-08-19T06:03:32;9.10;;;6.28;;
22646;SDS011;11490;42.726;23.268;2022-08-19T06:05:58;6.30;;;5.05;;
22646;SDS011;11490;42.726;23.268;2022-08-19T06:08:25;11.43;;;6.43;;
22646;SDS011;11490;42.726;23.268;2022-08-19T06:10:53;9.10;;;5.18;;
22646;SDS011;11490;42.726;23.268;2022-08-19T06:13:19;10.15;;;5.85;;
22646;SDS011;11490;42.726;23.268;2022-08-19T06:15:46;9.13;;;5.75;;
22646;SDS011;11490;42.726;23.268;2022-08-19T06:18:12;8.25;;;5.82;;
22646;SDS011;11490;42.726;23.268;2022-08-19T06:20:40;8.45;;;5.85;;
22646;SDS011;11490;42.726;23.268;2022-08-19T06:23:05;7.13;;;5.20;;
22646;SDS011;11490;42.726;23.268;2022-08-19T06:25:31;6.50;;;4.68;;
22646;SDS011;11490;42.726;23.268;2022-08-19T06:27:57;7.20;;;5.07;;
22646;SDS011;11490;42.726;23.268;2022-08-19T06:30:22;7.43;;;4.78;;
22646;SDS011;11490;42.726;23.268;2022-08-19T06:32:48;6.22;;;4.68;;
22646;SDS011;11490;42.726;23.268;2022-08-19T06:35:13;7.28;;;4.85;;
22646;SDS011;11490;42.726;23.268;2022-08-19T06:37:39;7.85;;;4.68;;
22646;SDS011;11490;42.726;23.268;2022-08-19T06:40:05;8.55;;;4.50;;
22646;SDS011;11490;42.726;23.268;2022-08-19T06:42:33;9.07;;;5.40;;
22646;SDS011;11490;42.726;23.268;2022-08-19T06:44:59;9.80;;;5.38;;
22646;SDS011;11490;42.726;23.268;2022-08-19T06:47:27;7.13;;;5.07;;
22646;SDS011;11490;42.726;23.268;2022-08-19T06:49:54;9.63;;;4.95;;
22646;SDS011;11490;42.726;23.268;2022-08-19T06:52:25;7.32;;;4.88;;
22646;SDS011;11490;42.726;23.268;2022-08-19T06:54:50;12.13;;;6.45;;
22646;SDS011;11490;42.726;23.268;2022-08-19T06:57:15;8.63;;;5.65;;
22646;SDS011;11490;42.726;23.268;2022-08-19T06:59:42;7.43;;;5.68;;
22646;SDS011;11490;42.726;23.268;2022-08-19T07:02:07;8.80;;;5.50;;
22646;SDS011;11490;42.726;23.268;2022-08-19T07:04:34;14.10;;;7.28;;
22646;SDS011;11490;42.726;23.268;2022-08-19T07:12:29;8.25;;;6.20;;
22646;SDS011;11490;42.726;23.268;2022-08-19T07:14:59;12.10;;;7.32;;
22646;SDS011;11490;42.726;23.268;2022-08-19T07:17:24;13.13;;;7.78;;
22646;SDS011;11490;42.726;23.268;2022-08-19T07:19:50;10.57;;;6.45;;
22646;SDS011;11490;42.726;23.268;2022-08-19T07:22:16;7.90;;;5.22;;
22646;SDS011;11490;42.726;23.268;2022-08-19T07:24:42;7.65;;;5.78;;
22646;SDS011;11490;42.726;23.268;2022-08-19T07:27:13;9.27;;;5.88;;
22646;SDS011;11490;42.726;23.268;2022-08-19T07:29:43;10.27;;;5.93;;
22646;SDS011;11490;42.726;23.268;2022-08-19T07:32:10;8.73;;;5.15;;
22646;SDS011;11490;42.726;23.268;2022-08-19T07:34:36;8.23;;;5.38;;
22646;SDS011;11490;42.726;23.268;2022-08-19T07:37:04;7.65;;;4.82;;
22646;SDS011;11490;42.726;23.268;2022-08-19T07:39:33;8.32;;;6.10;;
22646;SDS011;11490;42.726;23.268;2022-08-19T07:42:06;8.98;;;5.03;;
22646;SDS011;11490;42.726;23.268;2022-08-19T07:44:36;10.23;;;6.28;;
22646;SDS011;11490;42.726;23.268;2022-08-19T07:47:02;9.48;;;5.50;;
22646;SDS011;11490;42.726;23.268;2022-08-19T07:49:29;6.50;;;4.72;;
22646;SDS011;11490;42.726;23.268;2022-08-19T07:51:55;13.68;;;5.75;;
22646;SDS011;11490;42.726;23.268;2022-08-19T07:54:27;8.55;;;5.47;;
22646;SDS011;11490;42.726;23.268;2022-08-19T07:56:54;8.05;;;5.18;;
22646;SDS011;11490;42.726;23.268;2022-08-19T07:59:21;9.88;;;5.43;;
22646;SDS011;11490;42.726;23.268;2022-08-19T08:01:47;7.47;;;4.57;;
22646;SDS011;11490;42.726;23.268;2022-08-19T08:04:15;9.70;;;5.50;;
22646;SDS011;11490;42.726;23.268;2022-08-19T08:07:07;6.95;;;4.70;;
22646;SDS011;11490;42.726;23.268;2022-08-19T08:10:07;7.68;;;4.38;;
22646;SDS011;11490;42.726;23.268;2022-08-19T08:16:41;6.53;;;5.25;;
22646;SDS011;11490;42.726;23.268;2022-08-19T08:19:37;6.57;;;4.50;;
22646;SDS011;11490;42.726;23.268;2022-08-19T08:22:06;8.48;;;4.65;;
22646;SDS011;11490;42.726;23.268;2022-08-19T08:24:32;6.90;;;4.82;;
22646;SDS011;11490;42.726;23.268;2022-08-19T08:26:59;6.22;;;4.38;;
22646;SDS011;11490;42.726;23.268;2022-08-19T08:29:26;10.93;;;5.25;;
22646;SDS011;11490;42.726;23.268;2022-08-19T08:31:52;7.57;;;4.45;;
22646;SDS011;11490;42.726;23.268;2022-08-19T08:34:18;5.50;;;3.88;;
22646;SDS011;11490;42.726;23.268;2022-08-19T08:36:45;6.82;;;4.38;;
22646;SDS011;11490;42.726;23.268;2022-08-19T08:39:13;7.32;;;4.32;;
22646;SDS011;11490;42.726;23.268;2022-08-19T08:44:42;6.72;;;4.18;;
22646;SDS011;11490;42.726;23.268;2022-08-19T08:47:17;5.90;;;3.85;;
22646;SDS011;11490;42.726;23.268;2022-08-19T08:52:21;10.15;;;4.07;;
22646;SDS011;11490;42.726;23.268;2022-08-19T08:54:53;6.15;;;4.13;;
22646;SDS011;11490;42.726;23.268;2022-08-19T08:57:27;6.70;;;4.50;;
22646;SDS011;11490;42.726;23.268;2022-08-19T08:59:57;7.10;;;3.58;;
22646;SDS011;11490;42.726;23.268;2022-08-19T09:02:29;5.22;;;3.80;;
22646;SDS011;11490;42.726;23.268;2022-08-19T09:04:54;4.88;;;3.58;;
22646;SDS011;11490;42.726;23.268;2022-08-19T09:07:55;6.07;;;3.33;;
22646;SDS011;11490;42.726;23.268;2022-08-19T09:16:02;4.00;;;2.65;;
22646;SDS011;11490;42.726;23.268;2022-08-19T09:18:42;5.22;;;3.13;;
22646;SDS011;11490;42.726;23.268;2022-08-19T09:21:19;5.72;;;3.45;;
22646;SDS011;11490;42.726;23.268;2022-08-19T09:23:47;6.32;;;3.03;;
22646;SDS011;11490;42.726;23.268;2022-08-19T09:26:14;8.23;;;4.35;;
22646;SDS011;11490;42.726;23.268;2022-08-19T09:28:44;4.78;;;3.15;;
22646;SDS011;11490;42.726;23.268;2022-08-19T09:31:16;6.57;;;3.28;;
22646;SDS011;11490;42.726;23.268;2022-08-19T09:33:43;6.28;;;3.22;;
22646;SDS011;11490;42.726;23.268;2022-08-19T09:36:11;4.13;;;2.60;;
22646;SDS011;11490;42.726;23.268;2022-08-19T09:38:38;3.60;;;2.70;;
22646;SDS011;11490;42.726;23.268;2022-08-19T09:41:06;4.15;;;2.58;;
22646;SDS011;11490;42.726;23.268;2022-08-19T09:43:44;3.90;;;2.22;;
22646;SDS011;11490;42.726;23.268;2022-08-19T09:46:31;5.00;;;2.70;;
22646;SDS011;11490;42.726;23.268;2022-08-19T09:48:57;7.38;;;3.00;;
22646;SDS011;11490;42.726;23.268;2022-08-19T09:51:31;3.92;;;2.72;;
22646;SDS011;11490;42.726;23.268;2022-08-19T09:54:03;4.75;;;2.67;;
22646;SDS011;11490;42.726;23.268;2022-08-19T09:56:30;6.95;;;3.17;;
22646;SDS011;11490;42.726;23.268;2022-08-19T09:58:57;4.05;;;2.80;;
22646;SDS011;11490;42.726;23.268;2022-08-19T10:01:25;3.55;;;2.33;;
22646;SDS011;11490;42.726;23.268;2022-08-19T10:03:53;3.55;;;2.10;;
22646;SDS011;11490;42.726;23.268;2022-08-19T10:06:22;4.13;;;2.67;;
22646;SDS011;11490;42.726;23.268;2022-08-19T10:08:50;3.97;;;2.55;;
22646;SDS011;11490;42.726;23.268;2022-08-19T10:11:17;4.47;;;2.42;;
22646;SDS011;11490;42.726;23.268;2022-08-19T10:13:44;6.63;;;2.25;;
22646;SDS011;11490;42.726;23.268;2022-08-19T10:16:12;5.25;;;2.65;;
22646;SDS011;11490;42.726;23.268;2022-08-19T10:18:39;3.63;;;2.50;;
22646;SDS011;11490;42.726;23.268;2022-08-19T10:21:11;4.00;;;2.47;;
22646;SDS011;11490;42.726;23.268;2022-08-19T10:23:44;4.50;;;2.20;;
22646;SDS011;11490;42.726;23.268;2022-08-19T10:26:13;3.70;;;2.53;;
22646;SDS011;11490;42.726;23.268;2022-08-19T10:28:42;4.90;;;3.05;;
22646;SDS011;11490;42.726;23.268;2022-08-19T10:31:09;4.50;;;3.10;;
22646;SDS011;11490;42.726;23.268;2022-08-19T10:33:38;5.38;;;2.97;;
22646;SDS011;11490;42.726;23.268;2022-08-19T10:36:09;4.15;;;2.97;;
22646;SDS011;11490;42.726;23.268;2022-08-19T10:38:39;3.65;;;2.47;;
22646;SDS011;11490;42.726;23.268;2022-08-19T10:41:13;5.15;;;2.80;;
22646;SDS011;11490;42.726;23.268;2022-08-19T10:43:41;7.45;;;3.10;;
22646;SDS011;11490;42.726;23.268;2022-08-19T10:46:08;4.55;;;3.15;;
22646;SDS011;11490;42.726;23.268;2022-08-19T10:48:35;4.63;;;2.88;;
22646;SDS011;11490;42.726;23.268;2022-08-19T10:51:01;3.70;;;2.55;;
22646;SDS011;11490;42.726;23.268;2022-08-19T10:53:46;4.70;;;2.45;;
22646;SDS011;11490;42.726;23.268;2022-08-19T10:56:11;5.95;;;3.22;;
22646;SDS011;11490;42.726;23.268;2022-08-19T11:02:40;4.75;;;3.38;;
22646;SDS011;11490;42.726;23.268;2022-08-19T11:05:12;4.82;;;2.83;;
22646;SDS011;11490;42.726;23.268;2022-08-19T11:07:42;3.70;;;2.53;;
22646;SDS011;11490;42.726;23.268;2022-08-19T11:10:08;5.07;;;2.90;;
22646;SDS011;11490;42.726;23.268;2022-08-19T11:12:36;5.25;;;3.05;;
22646;SDS011;11490;42.726;23.268;2022-08-19T11:15:06;5.28;;;3.20;;
22646;SDS011;11490;42.726;23.268;2022-08-19T11:17:37;5.43;;;2.85;;
22646;SDS011;11490;42.726;23.268;2022-08-19T11:20:06;5.75;;;2.97;;
22646;SDS011;11490;42.726;23.268;2022-08-19T11:22:32;4.30;;;2.80;;
22646;SDS011;11490;42.726;23.268;2022-08-19T11:24:57;5.20;;;2.75;;
22646;SDS011;11490;42.726;23.268;2022-08-19T11:27:23;6.18;;;3.13;;
22646;SDS011;11490;42.726;23.268;2022-08-19T11:29:48;4.78;;;2.65;;
22646;SDS011;11490;42.726;23.268;2022-08-19T11:32:17;4.32;;;2.95;;
22646;SDS011;11490;42.726;23.268;2022-08-19T11:34:43;9.55;;;3.15;;
22646;SDS011;11490;42.726;23.268;2022-08-19T11:37:21;5.47;;;3.15;;
22646;SDS011;11490;42.726;23.268;2022-08-19T11:40:21;4.03;;;2.50;;
22646;SDS011;11490;42.726;23.268;2022-08-19T11:42:55;5.78;;;3.20;;
22646;SDS011;11490;42.726;23.268;2022-08-19T11:45:48;3.35;;;2.65;;
22646;SDS011;11490;42.726;23.268;2022-08-19T11:48:13;5.88;;;2.78;;
22646;SDS011;11490;42.726;23.268;2022-08-19T11:50:39;4.35;;;2.88;;
22646;SDS011;11490;42.726;23.268;2022-08-19T11:53:08;5.30;;;3.50;;
22646;SDS011;11490;42.726;23.268;2022-08-19T11:55:43;5.80;;;3.10;;
22646;SDS011;11490;42.726;23.268;2022-08-19T11:58:16;5.75;;;3.08;;
22646;SDS011;11490;42.726;23.268;2022-08-19T12:00:42;6.35;;;2.47;;
22646;SDS011;11490;42.726;23.268;2022-08-19T12:03:10;5.18;;;3.20;;
22646;SDS011;11490;42.726;23.268;2022-08-19T12:05:45;4.95;;;3.38;;
22646;SDS011;11490;42.726;23.268;2022-08-19T12:08:14;8.25;;;3.35;;
22646;SDS011;11490;42.726;23.268;2022-08-19T12:10:40;5.38;;;3.40;;
22646;SDS011;11490;42.726;23.268;2022-08-19T12:13:10;9.25;;;5.03;;
22646;SDS011;11490;42.726;23.268;2022-08-19T12:15:39;11.23;;;3.75;;
22646;SDS011;11490;42.726;23.268;2022-08-19T12:18:06;3.75;;;3.00;;
22646;SDS011;11490;42.726;23.268;2022-08-19T12:20:37;7.13;;;3.17;;
22646;SDS011;11490;42.726;23.268;2022-08-19T12:23:07;5.20;;;3.10;;
22646;SDS011;11490;42.726;23.268;2022-08-19T12:25:44;6.10;;;3.00;;
22646;SDS011;11490;42.726;23.268;2022-08-19T12:28:20;7.80;;;3.35;;
22646;SDS011;11490;42.726;23.268;2022-08-19T12:30:53;6.38;;;3.28;;
22646;SDS011;11490;42.726;23.268;2022-08-19T12:33:19;7.18;;;3.30;;
22646;SDS011;11490;42.726;23.268;2022-08-19T12:35:48;4.13;;;2.97;;
22646;SDS011;11490;42.726;23.268;2022-08-19T12:38:21;5.15;;;3.22;;
22646;SDS011;11490;42.726;23.268;2022-08-19T12:41:16;4.20;;;2.50;;
22646;SDS011;11490;42.726;23.268;2022-08-19T12:43:43;5.70;;;3.45;;
22646;SDS011;11490;42.726;23.268;2022-08-19T12:46:09;5.03;;;3.00;;
22646;SDS011;11490;42.726;23.268;2022-08-19T12:48:36;6.70;;;2.95;;
22646;SDS011;11490;42.726;23.268;2022-08-19T12:51:07;5.85;;;3.00;;
22646;SDS011;11490;42.726;23.268;2022-08-19T12:53:37;4.57;;;3.17;;
22646;SDS011;11490;42.726;23.268;2022-08-19T12:56:02;5.07;;;2.95;;
22646;SDS011;11490;42.726;23.268;2022-08-19T12:58:28;4.22;;;2.55;;
22646;SDS011;11490;42.726;23.268;2022-08-19T13:00:54;4.00;;;2.47;;
22646;SDS011;11490;42.726;23.268;2022-08-19T13:03:23;3.67;;;2.72;;
22646;SDS011;11490;42.726;23.268;2022-08-19T13:05:56;6.35;;;3.10;;
22646;SDS011;11490;42.726;23.268;2022-08-19T13:08:21;5.43;;;2.90;;
22646;SDS011;11490;42.726;23.268;2022-08-19T13:14:07;4.90;;;2.60;;
22646;SDS011;11490;42.726;23.268;2022-08-19T13:16:32;5.85;;;2.95;;
22646;SDS011;11490;42.726;23.268;2022-08-19T13:18:58;3.90;;;2.42;;
22646;SDS011;11490;42.726;23.268;2022-08-19T13:21:25;4.32;;;2.80;;
22646;SDS011;11490;42.726;23.268;2022-08-19T13:23:53;5.90;;;2.70;;
22646;SDS011;11490;42.726;23.268;2022-08-19T13:26:19;4.25;;;3.10;;
22646;SDS011;11490;42.726;23.268;2022-08-19T13:28:45;5.88;;;3.05;;
22646;SDS011;11490;42.726;23.268;2022-08-19T13:31:31;4.07;;;2.80;;
22646;SDS011;11490;42.726;23.268;2022-08-19T13:34:17;6.55;;;2.67;;
22646;SDS011;11490;42.726;23.268;2022-08-19T13:36:45;4.00;;;2.50;;
22646;SDS011;11490;42.726;23.268;2022-08-19T13:39:10;4.20;;;2.80;;
22646;SDS011;11490;42.726;23.268;2022-08-19T13:41:37;5.30;;;3.15;;
22646;SDS011;11490;42.726;23.268;2022-08-19T13:44:12;4.78;;;3.10;;
22646;SDS011;11490;42.726;23.268;2022-08-19T13:46:38;9.98;;;3.25;;
22646;SDS011;11490;42.726;23.268;2022-08-19T13:49:03;7.07;;;3.20;;
22646;SDS011;11490;42.726;23.268;2022-08-19T13:51:29;4.95;;;3.33;;
22646;SDS011;11490;42.726;23.268;2022-08-19T13:53:54;3.90;;;2.75;;
22646;SDS011;11490;42.726;23.268;2022-08-19T13:56:20;4.25;;;2.92;;
22646;SDS011;11490;42.726;23.268;2022-08-19T13:58:46;8.13;;;3.10;;
22646;SDS011;11490;42.726;23.268;2022-08-19T14:01:11;6.45;;;3.10;;
22646;SDS011;11490;42.726;23.268;2022-08-19T14:03:37;5.50;;;2.95;;
22646;SDS011;11490;42.726;23.268;2022-08-19T14:06:03;4.90;;;3.03;;
22646;SDS011;11490;42.726;23.268;2022-08-19T14:08:29;7.43;;;3.38;;
22646;SDS011;11490;42.726;23.268;2022-08-19T14:10:57;4.93;;;2.88;;
22646;SDS011;11490;42.726;23.268;2022-08-19T14:13:22;4.22;;;3.03;;
22646;SDS011;11490;42.726;23.268;2022-08-19T14:15:49;7.38;;;3.33;;
22646;SDS011;11490;42.726;23.268;2022-08-19T14:18:16;4.22;;;2.78;;
22646;SDS011;11490;42.726;23.268;2022-08-19T14:20:42;4.22;;;2.90;;
22646;SDS011;11490;42.726;23.268;2022-08-19T14:23:09;3.83;;;2.50;;
22646;SDS011;11490;42.726;23.268;2022-08-19T14:25:37;7.85;;;2.83;;
22646;SDS011;11490;42.726;23.268;2022-08-19T14:28:02;4.55;;;2.95;;
22646;SDS011;11490;42.726;23.268;2022-08-19T14:30:29;5.85;;;3.13;;
22646;SDS011;11490;42.726;23.268;2022-08-19T14:32:58;6.57;;;3.15;;
22646;SDS011;11490;42.726;23.268;2022-08-19T14:35:26;5.63;;;2.88;;
22646;SDS011;11490;42.726;23.268;2022-08-19T14:37:53;7.07;;;3.58;;
22646;SDS011;11490;42.726;23.268;2022-08-19T14:40:20;4.13;;;2.80;;
22646;SDS011;11490;42.726;23.268;2022-08-19T14:42:51;5.43;;;3.10;;
22646;SDS011;11490;42.726;23.268;2022-08-19T14:45:23;8.27;;;3.17;;
22646;SDS011;11490;42.726;23.268;2022-08-19T14:47:51;4.13;;;3.15;;
22646;SDS011;11490;42.726;23.268;2022-08-19T14:50:17;6.45;;;3.20;;
22646;SDS011;11490;42.726;23.268;2022-08-19T14:52:47;5.90;;;4.47;;
22646;SDS011;11490;42.726;23.268;2022-08-19T14:55:13;4.18;;;2.85;;
22646;SDS011;11490;42.726;23.268;2022-08-19T14:57:41;4.25;;;3.10;;
22646;SDS011;11490;42.726;23.268;2022-08-19T15:00:07;5.43;;;3.47;;
22646;SDS011;11490;42.726;23.268;2022-08-19T15:02:37;6.65;;;3.05;;
22646;SDS011;11490;42.726;23.268;2022-08-19T15:05:03;5.63;;;3.22;;
22646;SDS011;11490;42.726;23.268;2022-08-19T15:07:28;5.15;;;3.13;;
22646;SDS011;11490;42.726;23.268;2022-08-19T15:09:54;6.20;;;4.05;;